sensor_id;sensor_type;location;lat;lon;timestamp;temperature;humidity
34145;HTU21D;69555;53.014;8.886;2024-03-06T00:00:03;3.92;95.84
34145;HTU21D;69555;53.014;8.886;2024-03-06T00:02:30;3.97;96.53
34145;HTU21D;69555;53.014;8.886;2024-03-06T00:04:56;3.87;96.05
34145;HTU21D;69555;53.014;8.886;2024-03-06T00:07:23;3.90;96.02
34145;HTU21D;69555;53.014;8.886;2024-03-06T00:09:50;3.95;96.72
34145;HTU21D;69555;53.014;8.886;2024-03-06T00:12:17;3.92;96.18
34145;HTU21D;69555;53.014;8.886;2024-03-06T00:14:45;3.94;96.26
34145;HTU21D;69555;53.014;8.886;2024-03-06T00:17:12;3.89;96.97
34145;HTU21D;69555;53.014;8.886;2024-03-06T00:19:39;4.03;96.46
34145;HTU21D;69555;53.014;8.886;2024-03-06T00:22:06;3.98;95.84
34145;HTU21D;69555;53.014;8.886;2024-03-06T00:24:31;4.01;96.01
34145;HTU21D;69555;53.014;8.886;2024-03-06T00:26:58;4.00;95.81
34145;HTU21D;69555;53.014;8.886;2024-03-06T00:29:25;3.93;96.20
34145;HTU21D;69555;53.014;8.886;2024-03-06T00:31:52;3.97;96.26
34145;HTU21D;69555;53.014;8.886;2024-03-06T00:34:18;3.99;96.65
34145;HTU21D;69555;53.014;8.886;2024-03-06T00:36:45;4.01;96.27
34145;HTU21D;69555;53.014;8.886;2024-03-06T00:39:12;3.93;95.88
34145;HTU21D;69555;53.014;8.886;2024-03-06T00:41:40;3.91;96.09
34145;HTU21D;69555;53.014;8.886;2024-03-06T00:44:07;3.92;96.07
34145;HTU21D;69555;53.014;8.886;2024-03-06T00:46:33;3.94;96.62
34145;HTU21D;69555;53.014;8.886;2024-03-06T00:49:00;4.01;96.67
34145;HTU21D;69555;53.014;8.886;2024-03-06T00:51:27;3.98;97.06
34145;HTU21D;69555;53.014;8.886;2024-03-06T00:53:54;3.90;97.10
34145;HTU21D;69555;53.014;8.886;2024-03-06T00:56:21;3.84;96.50
34145;HTU21D;69555;53.014;8.886;2024-03-06T00:58:48;3.94;97.45
34145;HTU21D;69555;53.014;8.886;2024-03-06T01:01:15;3.86;98.31
34145;HTU21D;69555;53.014;8.886;2024-03-06T01:03:42;3.89;97.71
34145;HTU21D;69555;53.014;8.886;2024-03-06T01:06:09;3.86;97.58
34145;HTU21D;69555;53.014;8.886;2024-03-06T01:08:34;3.83;98.35
34145;HTU21D;69555;53.014;8.886;2024-03-06T01:11:01;3.90;97.82
34145;HTU21D;69555;53.014;8.886;2024-03-06T01:13:27;3.89;97.60
34145;HTU21D;69555;53.014;8.886;2024-03-06T01:15:54;3.90;98.06
34145;HTU21D;69555;53.014;8.886;2024-03-06T01:18:21;3.83;97.37
34145;HTU21D;69555;53.014;8.886;2024-03-06T01:20:48;3.83;98.58
34145;HTU21D;69555;53.014;8.886;2024-03-06T01:23:15;3.92;98.21
34145;HTU21D;69555;53.014;8.886;2024-03-06T01:25:41;3.86;98.13
34145;HTU21D;69555;53.014;8.886;2024-03-06T01:28:08;3.86;98.26
34145;HTU21D;69555;53.014;8.886;2024-03-06T01:30:34;3.92;97.73
34145;HTU21D;69555;53.014;8.886;2024-03-06T01:33:00;3.88;97.56
34145;HTU21D;69555;53.014;8.886;2024-03-06T01:35:26;3.79;98.18
34145;HTU21D;69555;53.014;8.886;2024-03-06T01:37:52;3.88;98.09
34145;HTU21D;69555;53.014;8.886;2024-03-06T01:40:17;3.85;97.73
34145;HTU21D;69555;53.014;8.886;2024-03-06T01:42:46;3.74;98.39
34145;HTU21D;69555;53.014;8.886;2024-03-06T01:45:13;3.73;98.05
34145;HTU21D;69555;53.014;8.886;2024-03-06T01:47:40;3.87;98.10
34145;HTU21D;69555;53.014;8.886;2024-03-06T01:50:07;3.86;98.27
34145;HTU21D;69555;53.014;8.886;2024-03-06T01:52:36;3.76;96.87
34145;HTU21D;69555;53.014;8.886;2024-03-06T01:55:05;3.85;96.70
34145;HTU21D;69555;53.014;8.886;2024-03-06T01:57:33;3.84;97.12
34145;HTU21D;69555;53.014;8.886;2024-03-06T02:00:02;3.83;97.65
34145;HTU21D;69555;53.014;8.886;2024-03-06T02:02:30;3.76;98.69
34145;HTU21D;69555;53.014;8.886;2024-03-06T02:04:56;3.73;97.71
34145;HTU21D;69555;53.014;8.886;2024-03-06T02:07:26;3.79;97.61
34145;HTU21D;69555;53.014;8.886;2024-03-06T02:09:54;3.79;97.70
34145;HTU21D;69555;53.014;8.886;2024-03-06T02:12:21;3.79;97.60
34145;HTU21D;69555;53.014;8.886;2024-03-06T02:14:47;3.77;97.78
34145;HTU21D;69555;53.014;8.886;2024-03-06T02:17:13;3.75;97.65
34145;HTU21D;69555;53.014;8.886;2024-03-06T02:19:42;3.80;97.10
34145;HTU21D;69555;53.014;8.886;2024-03-06T02:22:09;3.74;97.69
34145;HTU21D;69555;53.014;8.886;2024-03-06T02:24:36;3.89;96.76
34145;HTU21D;69555;53.014;8.886;2024-03-06T02:27:08;3.74;96.52
34145;HTU21D;69555;53.014;8.886;2024-03-06T02:29:34;3.88;96.25
34145;HTU21D;69555;53.014;8.886;2024-03-06T02:32:01;3.80;96.63
34145;HTU21D;69555;53.014;8.886;2024-03-06T02:34:31;3.84;96.92
34145;HTU21D;69555;53.014;8.886;2024-03-06T02:36:57;3.83;96.91
34145;HTU21D;69555;53.014;8.886;2024-03-06T02:39:24;3.87;96.62
34145;HTU21D;69555;53.014;8.886;2024-03-06T02:41:49;3.78;96.21
34145;HTU21D;69555;53.014;8.886;2024-03-06T02:44:16;3.86;96.92
34145;HTU21D;69555;53.014;8.886;2024-03-06T02:46:48;3.85;96.85
34145;HTU21D;69555;53.014;8.886;2024-03-06T02:49:16;3.78;97.79
34145;HTU21D;69555;53.014;8.886;2024-03-06T02:51:43;3.82;96.15
34145;HTU21D;69555;53.014;8.886;2024-03-06T02:54:09;3.72;97.66
34145;HTU21D;69555;53.014;8.886;2024-03-06T02:56:36;3.72;97.31
34145;HTU21D;69555;53.014;8.886;2024-03-06T02:59:03;3.72;97.97
34145;HTU21D;69555;53.014;8.886;2024-03-06T03:01:31;3.75;98.20
34145;HTU21D;69555;53.014;8.886;2024-03-06T03:03:57;3.72;96.83
34145;HTU21D;69555;53.014;8.886;2024-03-06T03:06:24;3.71;97.76
34145;HTU21D;69555;53.014;8.886;2024-03-06T03:08:50;3.73;97.71
34145;HTU21D;69555;53.014;8.886;2024-03-06T03:11:17;3.75;97.61
34145;HTU21D;69555;53.014;8.886;2024-03-06T03:13:44;3.78;97.58
34145;HTU21D;69555;53.014;8.886;2024-03-06T03:16:17;3.73;97.52
34145;HTU21D;69555;53.014;8.886;2024-03-06T03:18:45;3.73;98.30
34145;HTU21D;69555;53.014;8.886;2024-03-06T03:21:12;3.64;98.88
34145;HTU21D;69555;53.014;8.886;2024-03-06T03:23:40;3.62;98.30
34145;HTU21D;69555;53.014;8.886;2024-03-06T03:26:10;3.62;97.97
34145;HTU21D;69555;53.014;8.886;2024-03-06T03:28:40;3.71;97.52
34145;HTU21D;69555;53.014;8.886;2024-03-06T03:31:12;3.65;98.09
34145;HTU21D;69555;53.014;8.886;2024-03-06T03:33:41;3.58;98.18
34145;HTU21D;69555;53.014;8.886;2024-03-06T03:36:07;3.67;98.22
34145;HTU21D;69555;53.014;8.886;2024-03-06T03:38:35;3.67;97.93
34145;HTU21D;69555;53.014;8.886;2024-03-06T03:41:13;3.57;98.50
34145;HTU21D;69555;53.014;8.886;2024-03-06T03:43:40;3.52;97.97
34145;HTU21D;69555;53.014;8.886;2024-03-06T03:46:07;3.54;98.17
34145;HTU21D;69555;53.014;8.886;2024-03-06T03:48:32;3.55;97.80
34145;HTU21D;69555;53.014;8.886;2024-03-06T03:51:04;3.53;98.33
34145;HTU21D;69555;53.014;8.886;2024-03-06T03:53:30;3.48;98.49
34145;HTU21D;69555;53.014;8.886;2024-03-06T03:55:56;3.58;98.52
34145;HTU21D;69555;53.014;8.886;2024-03-06T03:58:21;3.58;98.32
34145;HTU21D;69555;53.014;8.886;2024-03-06T04:00:47;3.64;98.35
34145;HTU21D;69555;53.014;8.886;2024-03-06T04:03:12;3.65;98.96
34145;HTU21D;69555;53.014;8.886;2024-03-06T04:05:38;3.62;98.58
34145;HTU21D;69555;53.014;8.886;2024-03-06T04:08:03;3.69;99.23
34145;HTU21D;69555;53.014;8.886;2024-03-06T04:10:31;3.80;98.45
34145;HTU21D;69555;53.014;8.886;2024-03-06T04:12:57;3.74;98.10
34145;HTU21D;69555;53.014;8.886;2024-03-06T04:15:25;3.78;98.19
34145;HTU21D;69555;53.014;8.886;2024-03-06T04:17:50;3.84;97.90
34145;HTU21D;69555;53.014;8.886;2024-03-06T04:20:16;3.62;97.68
34145;HTU21D;69555;53.014;8.886;2024-03-06T04:22:41;3.78;97.67
34145;HTU21D;69555;53.014;8.886;2024-03-06T04:25:07;3.73;97.59
34145;HTU21D;69555;53.014;8.886;2024-03-06T04:27:32;3.73;97.85
34145;HTU21D;69555;53.014;8.886;2024-03-06T04:29:59;3.83;97.01
34145;HTU21D;69555;53.014;8.886;2024-03-06T04:32:24;3.85;97.07
34145;HTU21D;69555;53.014;8.886;2024-03-06T04:34:50;3.79;97.51
34145;HTU21D;69555;53.014;8.886;2024-03-06T04:37:17;3.78;97.66
34145;HTU21D;69555;53.014;8.886;2024-03-06T04:39:42;3.72;97.97
34145;HTU21D;69555;53.014;8.886;2024-03-06T04:42:09;3.69;98.39
34145;HTU21D;69555;53.014;8.886;2024-03-06T04:44:36;3.63;99.33
34145;HTU21D;69555;53.014;8.886;2024-03-06T04:47:03;3.47;100.31
34145;HTU21D;69555;53.014;8.886;2024-03-06T04:49:33;3.47;99.72
34145;HTU21D;69555;53.014;8.886;2024-03-06T04:52:06;3.41;99.98
34145;HTU21D;69555;53.014;8.886;2024-03-06T04:54:32;3.40;100.06
34145;HTU21D;69555;53.014;8.886;2024-03-06T04:56:59;3.39;100.36
34145;HTU21D;69555;53.014;8.886;2024-03-06T04:59:25;3.48;100.19
34145;HTU21D;69555;53.014;8.886;2024-03-06T05:01:52;3.45;100.61
34145;HTU21D;69555;53.014;8.886;2024-03-06T05:04:18;3.49;100.72
34145;HTU21D;69555;53.014;8.886;2024-03-06T05:06:43;3.43;100.34
34145;HTU21D;69555;53.014;8.886;2024-03-06T05:09:08;3.42;101.03
34145;HTU21D;69555;53.014;8.886;2024-03-06T05:11:38;3.36;100.74
34145;HTU21D;69555;53.014;8.886;2024-03-06T05:14:05;3.25;100.93
34145;HTU21D;69555;53.014;8.886;2024-03-06T05:16:32;3.29;101.25
34145;HTU21D;69555;53.014;8.886;2024-03-06T05:18:59;3.25;101.51
34145;HTU21D;69555;53.014;8.886;2024-03-06T05:21:24;3.04;102.61
34145;HTU21D;69555;53.014;8.886;2024-03-06T05:23:50;3.03;101.60
34145;HTU21D;69555;53.014;8.886;2024-03-06T05:26:15;3.03;101.53
34145;HTU21D;69555;53.014;8.886;2024-03-06T05:28:42;2.93;102.23
34145;HTU21D;69555;53.014;8.886;2024-03-06T05:31:18;2.85;103.21
34145;HTU21D;69555;53.014;8.886;2024-03-06T05:33:47;2.62;102.79
34145;HTU21D;69555;53.014;8.886;2024-03-06T05:36:13;2.61;103.18
34145;HTU21D;69555;53.014;8.886;2024-03-06T05:38:40;2.70;103.02
34145;HTU21D;69555;53.014;8.886;2024-03-06T05:41:07;2.60;103.48
34145;HTU21D;69555;53.014;8.886;2024-03-06T05:43:34;2.60;103.64
34145;HTU21D;69555;53.014;8.886;2024-03-06T05:46:00;2.55;103.38
34145;HTU21D;69555;53.014;8.886;2024-03-06T05:48:28;2.64;103.47
34145;HTU21D;69555;53.014;8.886;2024-03-06T05:50:55;2.65;103.73
34145;HTU21D;69555;53.014;8.886;2024-03-06T05:53:20;2.59;104.12
34145;HTU21D;69555;53.014;8.886;2024-03-06T05:55:46;2.58;103.88
34145;HTU21D;69555;53.014;8.886;2024-03-06T05:58:11;2.56;103.44
34145;HTU21D;69555;53.014;8.886;2024-03-06T06:00:37;2.54;103.47
34145;HTU21D;69555;53.014;8.886;2024-03-06T06:03:03;2.57;104.31
34145;HTU21D;69555;53.014;8.886;2024-03-06T06:05:29;2.59;103.87
34145;HTU21D;69555;53.014;8.886;2024-03-06T06:07:55;2.52;103.44
34145;HTU21D;69555;53.014;8.886;2024-03-06T06:10:20;2.52;103.45
34145;HTU21D;69555;53.014;8.886;2024-03-06T06:12:46;2.55;103.91
34145;HTU21D;69555;53.014;8.886;2024-03-06T06:15:11;2.61;103.66
34145;HTU21D;69555;53.014;8.886;2024-03-06T06:17:36;2.72;103.33
34145;HTU21D;69555;53.014;8.886;2024-03-06T06:20:06;2.70;103.72
34145;HTU21D;69555;53.014;8.886;2024-03-06T06:22:36;2.64;103.41
34145;HTU21D;69555;53.014;8.886;2024-03-06T06:25:02;2.74;103.23
34145;HTU21D;69555;53.014;8.886;2024-03-06T06:27:28;2.68;102.73
34145;HTU21D;69555;53.014;8.886;2024-03-06T06:29:54;2.79;102.65
34145;HTU21D;69555;53.014;8.886;2024-03-06T06:32:21;2.71;103.28
34145;HTU21D;69555;53.014;8.886;2024-03-06T06:34:48;2.76;103.04
34145;HTU21D;69555;53.014;8.886;2024-03-06T06:37:13;2.79;102.80
34145;HTU21D;69555;53.014;8.886;2024-03-06T06:39:41;2.74;102.18
34145;HTU21D;69555;53.014;8.886;2024-03-06T06:42:08;2.71;102.78
34145;HTU21D;69555;53.014;8.886;2024-03-06T06:44:37;2.68;103.20
34145;HTU21D;69555;53.014;8.886;2024-03-06T06:47:02;2.75;102.60
34145;HTU21D;69555;53.014;8.886;2024-03-06T06:49:29;2.67;102.14
34145;HTU21D;69555;53.014;8.886;2024-03-06T06:51:56;2.66;102.90
34145;HTU21D;69555;53.014;8.886;2024-03-06T06:54:21;2.70;102.20
34145;HTU21D;69555;53.014;8.886;2024-03-06T06:56:48;2.83;101.01
34145;HTU21D;69555;53.014;8.886;2024-03-06T06:59:16;2.74;102.25
34145;HTU21D;69555;53.014;8.886;2024-03-06T07:01:43;2.81;101.41
34145;HTU21D;69555;53.014;8.886;2024-03-06T07:04:08;2.80;101.59
34145;HTU21D;69555;53.014;8.886;2024-03-06T07:06:35;2.91;101.68
34145;HTU21D;69555;53.014;8.886;2024-03-06T07:09:00;2.76;102.01
34145;HTU21D;69555;53.014;8.886;2024-03-06T07:11:27;2.89;101.46
34145;HTU21D;69555;53.014;8.886;2024-03-06T07:13:52;2.87;101.94
34145;HTU21D;69555;53.014;8.886;2024-03-06T07:16:17;2.82;101.69
34145;HTU21D;69555;53.014;8.886;2024-03-06T07:18:44;2.86;101.11
34145;HTU21D;69555;53.014;8.886;2024-03-06T07:21:11;2.88;101.62
34145;HTU21D;69555;53.014;8.886;2024-03-06T07:23:37;2.91;101.84
34145;HTU21D;69555;53.014;8.886;2024-03-06T07:26:04;2.83;102.79
34145;HTU21D;69555;53.014;8.886;2024-03-06T07:28:30;2.87;102.98
34145;HTU21D;69555;53.014;8.886;2024-03-06T07:30:56;2.94;103.10
34145;HTU21D;69555;53.014;8.886;2024-03-06T07:33:22;3.09;102.47
34145;HTU21D;69555;53.014;8.886;2024-03-06T07:35:47;3.02;103.20
34145;HTU21D;69555;53.014;8.886;2024-03-06T07:38:14;3.09;101.92
34145;HTU21D;69555;53.014;8.886;2024-03-06T07:40:41;3.04;103.16
34145;HTU21D;69555;53.014;8.886;2024-03-06T07:43:07;3.03;103.02
34145;HTU21D;69555;53.014;8.886;2024-03-06T07:45:32;3.23;101.64
34145;HTU21D;69555;53.014;8.886;2024-03-06T07:47:57;3.17;101.63
34145;HTU21D;69555;53.014;8.886;2024-03-06T07:50:23;3.19;100.82
34145;HTU21D;69555;53.014;8.886;2024-03-06T07:52:49;3.24;100.70
34145;HTU21D;69555;53.014;8.886;2024-03-06T07:55:15;3.15;101.14
34145;HTU21D;69555;53.014;8.886;2024-03-06T07:57:40;3.16;100.74
34145;HTU21D;69555;53.014;8.886;2024-03-06T08:00:07;3.32;101.48
34145;HTU21D;69555;53.014;8.886;2024-03-06T08:02:45;3.41;101.32
34145;HTU21D;69555;53.014;8.886;2024-03-06T08:05:15;3.39;100.54
34145;HTU21D;69555;53.014;8.886;2024-03-06T08:07:41;3.36;100.34
34145;HTU21D;69555;53.014;8.886;2024-03-06T08:10:09;3.23;100.19
34145;HTU21D;69555;53.014;8.886;2024-03-06T08:12:38;3.25;101.12
34145;HTU21D;69555;53.014;8.886;2024-03-06T08:15:04;3.35;99.77
34145;HTU21D;69555;53.014;8.886;2024-03-06T08:17:30;3.47;100.13
34145;HTU21D;69555;53.014;8.886;2024-03-06T08:19:55;3.70;99.51
34145;HTU21D;69555;53.014;8.886;2024-03-06T08:22:20;3.52;98.72
34145;HTU21D;69555;53.014;8.886;2024-03-06T08:24:47;3.45;100.08
34145;HTU21D;69555;53.014;8.886;2024-03-06T08:27:14;3.48;99.49
34145;HTU21D;69555;53.014;8.886;2024-03-06T08:29:40;3.57;99.01
34145;HTU21D;69555;53.014;8.886;2024-03-06T08:32:06;3.48;98.32
34145;HTU21D;69555;53.014;8.886;2024-03-06T08:34:33;3.50;98.90
34145;HTU21D;69555;53.014;8.886;2024-03-06T08:36:58;3.49;98.87
34145;HTU21D;69555;53.014;8.886;2024-03-06T08:39:25;3.64;99.06
34145;HTU21D;69555;53.014;8.886;2024-03-06T08:41:51;3.72;97.81
34145;HTU21D;69555;53.014;8.886;2024-03-06T08:44:18;3.69;98.13
34145;HTU21D;69555;53.014;8.886;2024-03-06T08:46:43;3.94;95.95
34145;HTU21D;69555;53.014;8.886;2024-03-06T08:49:08;3.94;96.27
34145;HTU21D;69555;53.014;8.886;2024-03-06T08:51:35;4.01;95.92
34145;HTU21D;69555;53.014;8.886;2024-03-06T08:54:00;4.06;96.64
34145;HTU21D;69555;53.014;8.886;2024-03-06T08:56:29;4.06;95.07
34145;HTU21D;69555;53.014;8.886;2024-03-06T08:58:54;4.13;95.79
34145;HTU21D;69555;53.014;8.886;2024-03-06T09:01:19;4.26;95.43
34145;HTU21D;69555;53.014;8.886;2024-03-06T09:03:45;4.24;94.40
34145;HTU21D;69555;53.014;8.886;2024-03-06T09:06:10;4.31;95.10
34145;HTU21D;69555;53.014;8.886;2024-03-06T09:08:36;4.46;94.76
34145;HTU21D;69555;53.014;8.886;2024-03-06T09:11:01;4.45;93.85
34145;HTU21D;69555;53.014;8.886;2024-03-06T09:13:28;4.42;94.40
34145;HTU21D;69555;53.014;8.886;2024-03-06T09:15:55;4.22;93.98
34145;HTU21D;69555;53.014;8.886;2024-03-06T09:18:20;4.34;93.89
34145;HTU21D;69555;53.014;8.886;2024-03-06T09:20:47;4.42;94.61
34145;HTU21D;69555;53.014;8.886;2024-03-06T09:23:14;4.44;94.03
34145;HTU21D;69555;53.014;8.886;2024-03-06T09:25:41;4.59;93.50
34145;HTU21D;69555;53.014;8.886;2024-03-06T09:28:07;4.81;92.49
34145;HTU21D;69555;53.014;8.886;2024-03-06T09:30:34;4.83;91.14
34145;HTU21D;69555;53.014;8.886;2024-03-06T09:32:59;4.78;91.28
34145;HTU21D;69555;53.014;8.886;2024-03-06T09:35:24;4.75;91.63
34145;HTU21D;69555;53.014;8.886;2024-03-06T09:37:51;4.84;92.70
34145;HTU21D;69555;53.014;8.886;2024-03-06T09:40:23;5.19;91.10
34145;HTU21D;69555;53.014;8.886;2024-03-06T09:42:50;4.97;91.04
34145;HTU21D;69555;53.014;8.886;2024-03-06T09:45:16;5.03;91.34
34145;HTU21D;69555;53.014;8.886;2024-03-06T09:47:43;5.09;90.55
34145;HTU21D;69555;53.014;8.886;2024-03-06T09:50:09;5.03;91.17
34145;HTU21D;69555;53.014;8.886;2024-03-06T09:52:36;4.97;90.18
34145;HTU21D;69555;53.014;8.886;2024-03-06T09:55:03;5.26;90.10
34145;HTU21D;69555;53.014;8.886;2024-03-06T09:57:30;5.24;90.05
34145;HTU21D;69555;53.014;8.886;2024-03-06T09:59:56;5.37;89.00
34145;HTU21D;69555;53.014;8.886;2024-03-06T10:02:31;5.34;88.57
34145;HTU21D;69555;53.014;8.886;2024-03-06T10:04:59;5.47;88.65
34145;HTU21D;69555;53.014;8.886;2024-03-06T10:07:26;5.53;89.18
34145;HTU21D;69555;53.014;8.886;2024-03-06T10:09:52;5.42;88.76
34145;HTU21D;69555;53.014;8.886;2024-03-06T10:12:18;5.54;88.98
34145;HTU21D;69555;53.014;8.886;2024-03-06T10:14:51;5.64;87.56
34145;HTU21D;69555;53.014;8.886;2024-03-06T10:17:20;5.57;88.25
34145;HTU21D;69555;53.014;8.886;2024-03-06T10:19:48;5.65;87.91
34145;HTU21D;69555;53.014;8.886;2024-03-06T10:22:16;5.61;86.97
34145;HTU21D;69555;53.014;8.886;2024-03-06T10:24:44;5.66;87.42
34145;HTU21D;69555;53.014;8.886;2024-03-06T10:27:17;5.71;86.38
34145;HTU21D;69555;53.014;8.886;2024-03-06T10:29:43;5.79;87.57
34145;HTU21D;69555;53.014;8.886;2024-03-06T10:32:08;5.84;86.98
34145;HTU21D;69555;53.014;8.886;2024-03-06T10:34:34;5.92;86.86
34145;HTU21D;69555;53.014;8.886;2024-03-06T10:37:01;6.38;85.15
34145;HTU21D;69555;53.014;8.886;2024-03-06T10:39:30;6.05;85.35
34145;HTU21D;69555;53.014;8.886;2024-03-06T10:42:02;6.14;85.58
34145;HTU21D;69555;53.014;8.886;2024-03-06T10:44:27;6.12;85.75
34145;HTU21D;69555;53.014;8.886;2024-03-06T10:46:59;6.36;83.27
34145;HTU21D;69555;53.014;8.886;2024-03-06T10:49:30;6.21;83.19
34145;HTU21D;69555;53.014;8.886;2024-03-06T10:52:03;6.26;84.16
34145;HTU21D;69555;53.014;8.886;2024-03-06T10:54:34;6.20;84.44
34145;HTU21D;69555;53.014;8.886;2024-03-06T10:57:02;6.30;83.99
34145;HTU21D;69555;53.014;8.886;2024-03-06T10:59:28;6.42;84.70
34145;HTU21D;69555;53.014;8.886;2024-03-06T11:01:58;6.96;83.53
34145;HTU21D;69555;53.014;8.886;2024-03-06T11:04:28;7.20;82.17
34145;HTU21D;69555;53.014;8.886;2024-03-06T11:06:58;6.97;82.65
34145;HTU21D;69555;53.014;8.886;2024-03-06T11:09:25;6.99;81.10
34145;HTU21D;69555;53.014;8.886;2024-03-06T11:11:53;7.00;81.81
34145;HTU21D;69555;53.014;8.886;2024-03-06T11:14:24;7.19;80.91
34145;HTU21D;69555;53.014;8.886;2024-03-06T11:17:04;7.49;79.52
34145;HTU21D;69555;53.014;8.886;2024-03-06T11:19:30;7.39;79.49
34145;HTU21D;69555;53.014;8.886;2024-03-06T11:21:56;7.34;80.79
34145;HTU21D;69555;53.014;8.886;2024-03-06T11:24:35;7.38;79.51
34145;HTU21D;69555;53.014;8.886;2024-03-06T11:27:03;7.60;79.99
34145;HTU21D;69555;53.014;8.886;2024-03-06T11:30:07;7.69;80.30
34145;HTU21D;69555;53.014;8.886;2024-03-06T11:32:36;7.63;79.68
34145;HTU21D;69555;53.014;8.886;2024-03-06T11:35:03;7.76;77.47
34145;HTU21D;69555;53.014;8.886;2024-03-06T11:37:36;7.91;76.58
34145;HTU21D;69555;53.014;8.886;2024-03-06T11:40:06;7.76;76.63
34145;HTU21D;69555;53.014;8.886;2024-03-06T11:42:35;7.96;77.10
34145;HTU21D;69555;53.014;8.886;2024-03-06T11:45:16;8.07;75.47
34145;HTU21D;69555;53.014;8.886;2024-03-06T11:48:01;7.93;75.95
34145;HTU21D;69555;53.014;8.886;2024-03-06T11:50:27;8.09;75.51
34145;HTU21D;69555;53.014;8.886;2024-03-06T11:52:58;8.05;74.99
34145;HTU21D;69555;53.014;8.886;2024-03-06T11:55:23;8.09;74.00
34145;HTU21D;69555;53.014;8.886;2024-03-06T11:57:53;8.34;73.52
34145;HTU21D;69555;53.014;8.886;2024-03-06T12:00:23;8.14;72.98
34145;HTU21D;69555;53.014;8.886;2024-03-06T12:02:50;7.98;73.01
34145;HTU21D;69555;53.014;8.886;2024-03-06T12:05:23;7.89;74.66
34145;HTU21D;69555;53.014;8.886;2024-03-06T12:07:50;7.75;73.26
34145;HTU21D;69555;53.014;8.886;2024-03-06T12:10:18;8.01;73.26
34145;HTU21D;69555;53.014;8.886;2024-03-06T12:12:44;8.20;72.95
34145;HTU21D;69555;53.014;8.886;2024-03-06T12:15:15;8.30;74.04
34145;HTU21D;69555;53.014;8.886;2024-03-06T12:17:44;8.41;72.23
34145;HTU21D;69555;53.014;8.886;2024-03-06T12:20:14;8.15;72.83
34145;HTU21D;69555;53.014;8.886;2024-03-06T12:22:52;8.19;73.06
34145;HTU21D;69555;53.014;8.886;2024-03-06T12:25:23;8.28;73.34
34145;HTU21D;69555;53.014;8.886;2024-03-06T12:27:49;8.36;70.97
34145;HTU21D;69555;53.014;8.886;2024-03-06T12:30:22;8.22;71.56
34145;HTU21D;69555;53.014;8.886;2024-03-06T12:32:57;8.31;73.11
34145;HTU21D;69555;53.014;8.886;2024-03-06T12:35:26;8.42;72.75
34145;HTU21D;69555;53.014;8.886;2024-03-06T12:37:52;8.61;71.96
34145;HTU21D;69555;53.014;8.886;2024-03-06T12:40:21;8.78;70.36
34145;HTU21D;69555;53.014;8.886;2024-03-06T12:42:48;8.90;70.71
34145;HTU21D;69555;53.014;8.886;2024-03-06T12:45:16;8.89;70.55
34145;HTU21D;69555;53.014;8.886;2024-03-06T12:47:48;8.95;69.93
34145;HTU21D;69555;53.014;8.886;2024-03-06T12:50:14;9.06;69.98
34145;HTU21D;69555;53.014;8.886;2024-03-06T12:52:41;8.88;70.66
34145;HTU21D;69555;53.014;8.886;2024-03-06T12:55:07;8.91;69.28
34145;HTU21D;69555;53.014;8.886;2024-03-06T12:57:34;8.83;70.93
34145;HTU21D;69555;53.014;8.886;2024-03-06T13:00:00;8.74;70.46
34145;HTU21D;69555;53.014;8.886;2024-03-06T13:02:25;8.91;69.88
34145;HTU21D;69555;53.014;8.886;2024-03-06T13:04:51;8.91;69.79
34145;HTU21D;69555;53.014;8.886;2024-03-06T13:07:18;8.87;70.61
34145;HTU21D;69555;53.014;8.886;2024-03-06T13:09:43;8.93;70.88
34145;HTU21D;69555;53.014;8.886;2024-03-06T13:12:10;9.20;70.10
34145;HTU21D;69555;53.014;8.886;2024-03-06T13:14:35;9.11;71.01
34145;HTU21D;69555;53.014;8.886;2024-03-06T13:17:01;9.24;70.67
34145;HTU21D;69555;53.014;8.886;2024-03-06T13:19:27;8.90;70.97
34145;HTU21D;69555;53.014;8.886;2024-03-06T13:21:53;9.23;71.00
34145;HTU21D;69555;53.014;8.886;2024-03-06T13:24:19;8.88;71.54
34145;HTU21D;69555;53.014;8.886;2024-03-06T13:26:45;9.12;71.61
34145;HTU21D;69555;53.014;8.886;2024-03-06T13:29:13;9.21;71.18
34145;HTU21D;69555;53.014;8.886;2024-03-06T13:31:38;9.27;69.91
34145;HTU21D;69555;53.014;8.886;2024-03-06T13:34:04;9.03;69.81
34145;HTU21D;69555;53.014;8.886;2024-03-06T13:36:29;9.27;71.62
34145;HTU21D;69555;53.014;8.886;2024-03-06T13:38:56;9.26;70.70
34145;HTU21D;69555;53.014;8.886;2024-03-06T13:41:22;9.34;68.72
34145;HTU21D;69555;53.014;8.886;2024-03-06T13:43:49;9.37;69.77
34145;HTU21D;69555;53.014;8.886;2024-03-06T13:46:15;9.32;69.96
34145;HTU21D;69555;53.014;8.886;2024-03-06T13:48:40;9.38;67.72
34145;HTU21D;69555;53.014;8.886;2024-03-06T13:51:07;9.19;67.66
34145;HTU21D;69555;53.014;8.886;2024-03-06T13:53:32;9.31;68.71
34145;HTU21D;69555;53.014;8.886;2024-03-06T13:55:59;9.37;69.57
34145;HTU21D;69555;53.014;8.886;2024-03-06T13:58:25;9.37;68.16
34145;HTU21D;69555;53.014;8.886;2024-03-06T14:00:52;9.30;67.52
34145;HTU21D;69555;53.014;8.886;2024-03-06T14:03:18;9.37;68.46
34145;HTU21D;69555;53.014;8.886;2024-03-06T14:05:43;9.76;68.65
34145;HTU21D;69555;53.014;8.886;2024-03-06T14:08:08;10.01;68.30
34145;HTU21D;69555;53.014;8.886;2024-03-06T14:10:38;10.37;65.86
34145;HTU21D;69555;53.014;8.886;2024-03-06T14:13:04;10.29;67.14
34145;HTU21D;69555;53.014;8.886;2024-03-06T14:15:31;10.25;67.31
34145;HTU21D;69555;53.014;8.886;2024-03-06T14:17:57;10.05;66.53
34145;HTU21D;69555;53.014;8.886;2024-03-06T14:20:22;10.06;66.07
34145;HTU21D;69555;53.014;8.886;2024-03-06T14:22:49;9.99;65.32
34145;HTU21D;69555;53.014;8.886;2024-03-06T14:25:14;9.96;65.69
34145;HTU21D;69555;53.014;8.886;2024-03-06T14:27:41;10.13;66.82
34145;HTU21D;69555;53.014;8.886;2024-03-06T14:30:08;10.05;67.30
34145;HTU21D;69555;53.014;8.886;2024-03-06T14:32:35;9.94;66.81
34145;HTU21D;69555;53.014;8.886;2024-03-06T14:35:01;9.91;66.87
34145;HTU21D;69555;53.014;8.886;2024-03-06T14:37:27;10.36;65.95
34145;HTU21D;69555;53.014;8.886;2024-03-06T14:39:53;10.31;65.92
34145;HTU21D;69555;53.014;8.886;2024-03-06T14:42:19;10.13;67.43
34145;HTU21D;69555;53.014;8.886;2024-03-06T14:44:44;10.23;66.58
34145;HTU21D;69555;53.014;8.886;2024-03-06T14:47:11;10.24;66.79
34145;HTU21D;69555;53.014;8.886;2024-03-06T14:49:36;10.07;66.69
34145;HTU21D;69555;53.014;8.886;2024-03-06T14:52:03;10.16;68.00
34145;HTU21D;69555;53.014;8.886;2024-03-06T14:54:30;10.07;67.29
34145;HTU21D;69555;53.014;8.886;2024-03-06T14:56:55;10.06;67.81
34145;HTU21D;69555;53.014;8.886;2024-03-06T14:59:21;10.18;66.80
34145;HTU21D;69555;53.014;8.886;2024-03-06T15:01:46;10.21;66.45
34145;HTU21D;69555;53.014;8.886;2024-03-06T15:04:13;10.39;65.67
34145;HTU21D;69555;53.014;8.886;2024-03-06T15:06:39;10.30;66.65
34145;HTU21D;69555;53.014;8.886;2024-03-06T15:09:04;10.29;65.55
34145;HTU21D;69555;53.014;8.886;2024-03-06T15:11:30;10.59;64.88
34145;HTU21D;69555;53.014;8.886;2024-03-06T15:13:59;10.01;66.80
34145;HTU21D;69555;53.014;8.886;2024-03-06T15:16:24;9.81;67.60
34145;HTU21D;69555;53.014;8.886;2024-03-06T15:18:51;9.78;66.43
34145;HTU21D;69555;53.014;8.886;2024-03-06T15:21:20;9.60;68.24
34145;HTU21D;69555;53.014;8.886;2024-03-06T15:23:45;9.77;68.62
34145;HTU21D;69555;53.014;8.886;2024-03-06T15:26:11;9.81;69.08